Language selection

Weather shortcuts

Pacific - North Coast: Past 24 Hour Conditions

 

Nanakwa Shoal - 46181

11:00 AM PDT 13 April 2024Buoy position: 53.83N 128.83W
Disclaimer

This table is a summary of hourly weather conditions for the past 24 hours.
Please note that these observations might not always be representative of weather conditions over their associated marine area.

Date / Time
(PDT)
Wind(knots) Wave height(m) Wave period(s) Pressure(kPa) Air tempC) Water tempC)
13 April 2024
11:00 SW 1 gusts 2 0.02 1.9 102.0 7 8
10:00 S 4 gusts 5 0.03 1.7 101.9 6 8
9:00 SSW 5 gusts 7 0.03 2.0 101.9 6 7
8:00 W 6 gusts 8 0.05 2.1 101.9 5 7
7:00 W 4 gusts 5 0.09 2.2 101.8 5 7
6:00 W 7 gusts 9 0.10 2.1 101.8 4 7
5:00 W 7 gusts 9 0.09 2.1 101.8 5 7
4:00 W 7 gusts 9 0.13 2.2 101.8 5 7
3:00 SSW 8 gusts 10 0.10 2.2 101.7 7 7
2:00 SSW 9 gusts 10 0.08 1.9 101.7 7 8
1:00 SW 9 gusts 11 0.14 2.2 101.7 7 8
0:00 SSW 10 gusts 11 0.16 2.1 101.7 8 8
12 April 2024
23:00 SSW 11 gusts 15 0.17 2.1 101.7 8 8
22:00 S 12 gusts 15 0.22 2.1 101.6 8 8
21:00 S 12 gusts 15 0.28 2.6 101.6 8 8
20:00 S 15 gusts 18 0.35 2.5 101.5 8 8
19:00 S 16 gusts 19 0.38 2.5 101.5 8 8
18:00 SSW 12 gusts 18 0.26 2.3 101.5 9 8
17:00 SW 12 gusts 16 0.33 2.2 101.6 8 9
16:00 SW 17 gusts 20 0.33 2.5 101.5 9 9
15:00 S 16 gusts 19 0.31 2.6 101.5 8 9
14:00 S 12 gusts 17 0.15 2.3 101.6 8 9
13:00 SSE 9 gusts 11 0.03 1.9 101.6 7 9
12:00 SSW 7 gusts 9 0.01 1.8 101.7 6 8
11:00 S 6 gusts 8 0.04 2.0 101.7 6 8

Zoom-in to make a selection

Map of Pacific - North Coast marine weather areas Middle Nomad - 46004 South Nomad - 46036 Dixon Entrance Central - 46145 South Moresby - 46147 Nanakwa Shoal - 46181 North Hecate Strait - 46183 North Nomad - 46184 South Hecate Strait - 46185 West Sea Otter - 46204 West Dixon Entrance - 46205 East Dellwood - 46207 West Moresby - 46208 Sartine Island Cape St.James Kindakun Rocks Langara Island Masset Municipal Airport Rose Spit Sandspit Airport Bella Bella Airport Bella Coola Airport Bonilla Island Cathedral Point Cumshewa Island Grey Islet Holland Rock Lucy Islands Lightstation Prince Rupert Airport
Legend:
buoy Buoy
land station Land Station

Pacific - North Coast Area

Another Region

Date modified: